createdAt,value
2023-06-16T00:01:11.054Z,100294.11
2023-06-16T00:06:28.941Z,100288.11
2023-06-16T00:11:34.402Z,100283.61
2023-06-16T00:16:44.387Z,100290.23
2023-06-16T00:21:49.539Z,100290.08
2023-06-16T00:26:53.177Z,100290.27
2023-06-16T00:31:57.058Z,100290.32
2023-06-16T00:37:00.404Z,100286.50
2023-06-16T00:42:04.476Z,100283.48
2023-06-16T00:47:08.275Z,100285.48
2023-06-16T00:52:15.278Z,100282.93
2023-06-16T00:57:18.969Z,100284.10
2023-06-16T01:02:24.617Z,100280.89
2023-06-16T01:07:35.077Z,100276.64
2023-06-16T01:13:13.775Z,100274.45
2023-06-16T01:18:29.034Z,100270.23
2023-06-16T01:24:09.238Z,100267.69
2023-06-16T01:29:14.458Z,100266.44
2023-06-16T01:34:22.686Z,100267.38
2023-06-16T01:39:29.934Z,100270.00
2023-06-16T01:44:36.853Z,100267.37
2023-06-16T01:49:41.120Z,100267.73
2023-06-16T01:54:44.766Z,100268.98
2023-06-16T02:00:00.691Z,100268.09
2023-06-16T02:05:06.744Z,100270.05
2023-06-16T02:10:12.910Z,100269.02
2023-06-16T02:15:19.576Z,100268.82
2023-06-16T02:20:26.144Z,100270.29
2023-06-16T02:25:29.585Z,100270.20
2023-06-16T02:30:32.842Z,100271.67
2023-06-16T02:35:36.049Z,100274.13
2023-06-16T02:40:39.375Z,100273.03
2023-06-16T02:45:42.780Z,100270.94
2023-06-16T02:50:46.258Z,100274.27
2023-06-16T02:55:52.930Z,100278.04
2023-06-16T03:00:56.674Z,100283.14
2023-06-16T03:06:17.844Z,100286.28
2023-06-16T03:11:24.537Z,100287.79
2023-06-16T03:16:32.804Z,100288.29
2023-06-16T03:21:36.755Z,100282.68
2023-06-16T03:26:42.575Z,100283.30
2023-06-16T03:31:50.832Z,100282.58
2023-06-16T03:36:58.424Z,100290.91
2023-06-16T03:42:05.926Z,100296.45
2023-06-16T03:47:09.484Z,100299.41
2023-06-16T03:52:13.046Z,100289.93
2023-06-16T03:57:16.942Z,100294.05
2023-06-16T04:02:23.197Z,100289.38
2023-06-16T04:07:27.639Z,100292.00
2023-06-16T04:12:31.118Z,100288.24
2023-06-16T04:17:41.578Z,100294.20
2023-06-16T04:22:46.196Z,100288.73
2023-06-16T04:27:52.511Z,100288.67
2023-06-16T04:33:00.325Z,100285.62
2023-06-16T04:38:09.924Z,100278.52
2023-06-16T04:43:13.906Z,100279.13
2023-06-16T04:48:17.744Z,100280.36
2023-06-16T04:53:22.838Z,100281.46
2023-06-16T04:58:30.397Z,100281.23
2023-06-16T05:03:34.046Z,100278.89
2023-06-16T05:08:37.349Z,100279.83
2023-06-16T05:13:40.995Z,100283.97
2023-06-16T05:18:45.143Z,100278.02
2023-06-16T05:23:48.862Z,100289.52
2023-06-16T05:28:52.139Z,100288.35
2023-06-16T05:33:57.095Z,100282.77
2023-06-16T05:39:04.318Z,100283.84
2023-06-16T05:44:08.550Z,100288.93
2023-06-16T05:49:11.931Z,100290.58
2023-06-16T05:54:15.528Z,100286.52
2023-06-16T05:59:23.851Z,100281.05
2023-06-16T06:04:29.491Z,100279.41
2023-06-16T06:09:39.088Z,100282.98
2023-06-16T06:14:43.455Z,100291.53
2023-06-16T06:19:48.609Z,100291.54
2023-06-16T06:24:52.007Z,100286.56
2023-06-16T06:29:55.546Z,100282.50
2023-06-16T06:34:59.263Z,100283.40
2023-06-16T06:40:05.835Z,100281.58
2023-06-16T06:45:15.393Z,100281.42
2023-06-16T06:50:19.013Z,100281.52
2023-06-16T06:55:22.683Z,100282.40
2023-06-16T07:00:25.960Z,100288.04
2023-06-16T07:05:29.220Z,100287.30
2023-06-16T07:10:34.085Z,100293.85
2023-06-16T07:15:37.576Z,100293.21
2023-06-16T07:20:41.096Z,100295.78
2023-06-16T07:25:44.541Z,100294.93
2023-06-16T07:30:49.017Z,100293.21
2023-06-16T07:35:52.160Z,100292.16
2023-06-16T07:40:55.401Z,100293.16
2023-06-16T07:45:58.734Z,100295.13
2023-06-16T07:51:02.036Z,100290.34
2023-06-16T07:56:05.434Z,100289.81
2023-06-16T08:01:09.010Z,100286.86
2023-06-16T08:06:12.508Z,100287.09
2023-06-16T08:11:16.037Z,100286.78
2023-06-16T08:16:19.338Z,100285.38
2023-06-16T08:21:22.842Z,100282.39
2023-06-16T08:26:26.243Z,100278.11
2023-06-16T08:31:29.713Z,100277.14
2023-06-16T08:36:34.448Z,100277.59
2023-06-16T08:41:39.815Z,100277.36
2023-06-16T08:46:43.513Z,100273.20
2023-06-16T08:51:51.496Z,100274.39
2023-06-16T08:57:02.536Z,100278.38
2023-06-16T09:02:24.590Z,100275.88
2023-06-16T09:07:29.105Z,100274.08
2023-06-16T09:12:32.455Z,100270.75
2023-06-16T09:17:36.666Z,100270.91
2023-06-16T09:22:40.403Z,100266.80
2023-06-16T09:27:51.938Z,100263.11
2023-06-16T09:32:55.904Z,100265.23
2023-06-16T09:38:02.171Z,100258.49
2023-06-16T09:43:11.739Z,100255.83
2023-06-16T09:48:15.224Z,100256.29
2023-06-16T09:53:20.366Z,100244.79
2023-06-16T09:58:37.640Z,100242.83
2023-06-16T10:03:50.175Z,100243.69
2023-06-16T10:09:19.535Z,100242.66
2023-06-16T10:14:26.920Z,100233.88
2023-06-16T10:19:36.260Z,100230.98
2023-06-16T10:24:40.803Z,100227.74
2023-06-16T10:29:47.871Z,100225.22
2023-06-16T10:34:58.307Z,100227.92
2023-06-16T10:40:09.953Z,100221.47
2023-06-16T10:45:30.678Z,100221.13
2023-06-16T10:50:39.949Z,100213.89
2023-06-16T10:55:44.967Z,100204.16
2023-06-16T11:01:03.983Z,100205.73
2023-06-16T11:06:07.429Z,100202.88
2023-06-16T11:11:10.720Z,100202.83
2023-06-16T11:16:13.975Z,100199.83
2023-06-16T11:21:17.647Z,100201.10
2023-06-16T11:26:23.681Z,100197.64
2023-06-16T11:31:30.370Z,100191.63
2023-06-16T11:36:36.539Z,100187.94
2023-06-16T11:41:42.482Z,100186.00
2023-06-16T11:46:51.025Z,100183.48
2023-06-16T11:51:54.878Z,100180.11
2023-06-16T11:56:59.621Z,100176.73
2023-06-16T12:02:04.572Z,100176.02
2023-06-16T12:07:08.210Z,100166.63
2023-06-16T12:12:11.720Z,100163.90
2023-06-16T12:17:14.920Z,100162.03
2023-06-16T12:22:18.251Z,100159.15
2023-06-16T12:27:27.994Z,100154.91
2023-06-16T12:32:32.642Z,100155.66
2023-06-16T12:37:39.752Z,100151.34
2023-06-16T12:42:42.833Z,100143.36
2023-06-16T12:47:46.093Z,100140.80
2023-06-16T12:52:49.447Z,100138.10
2023-06-16T12:57:52.657Z,100133.97
2023-06-16T13:02:56.461Z,100128.76
2023-06-16T13:08:00.187Z,100122.76
2023-06-16T13:13:03.463Z,100122.36
2023-06-16T13:18:08.547Z,100119.71
2023-06-16T13:23:23.094Z,100110.69
2023-06-16T13:28:26.843Z,100106.52
2023-06-16T13:33:30.735Z,100105.54
2023-06-16T13:38:34.956Z,100105.05
2023-06-16T13:43:38.436Z,100104.20
2023-06-16T13:48:41.649Z,100099.63
2023-06-16T13:53:44.942Z,100099.52
2023-06-16T13:58:48.170Z,100092.65
2023-06-16T14:10:18.667Z,100078.58
2023-06-16T14:15:22.492Z,100073.34
2023-06-16T14:20:25.890Z,100075.60
2023-06-16T14:25:29.180Z,100071.22
2023-06-16T14:30:34.444Z,100067.24
2023-06-16T14:35:37.883Z,100062.28
2023-06-16T14:40:41.178Z,100054.98
2023-06-16T14:45:44.526Z,100050.17
2023-06-16T14:50:48.336Z,100049.77
2023-06-16T14:55:51.736Z,100043.67
2023-06-16T15:00:55.447Z,100042.58
2023-06-16T15:05:58.657Z,100040.33
2023-06-16T15:11:01.891Z,100036.43
2023-06-16T15:16:05.223Z,100030.58
2023-06-16T15:21:09.696Z,100025.79
2023-06-16T15:26:13.022Z,100029.86
2023-06-16T15:31:16.256Z,100032.15
2023-06-16T15:36:19.674Z,100027.63
2023-06-16T15:41:23.118Z,100028.68
2023-06-16T15:46:26.542Z,100026.30
2023-06-16T15:51:30.434Z,100023.41
2023-06-16T15:56:34.265Z,100021.40
2023-06-16T16:01:39.653Z,100019.67
2023-06-16T16:06:43.095Z,100019.83
2023-06-16T16:11:46.388Z,100027.31
2023-06-16T16:16:49.709Z,100027.15
2023-06-16T16:21:53.599Z,100027.02
2023-06-16T16:26:56.742Z,100028.23
2023-06-16T16:32:02.574Z,100031.05
2023-06-16T16:37:07.807Z,100031.21
2023-06-16T16:42:11.337Z,100035.27
2023-06-16T16:47:16.000Z,100032.16
2023-06-16T16:52:19.248Z,100030.63
2023-06-16T16:57:22.474Z,100028.97
2023-06-16T17:02:25.617Z,100029.22
2023-06-16T17:07:28.763Z,100035.20
2023-06-16T17:12:32.082Z,100034.92
2023-06-16T17:17:35.253Z,100037.67
2023-06-16T17:22:38.669Z,100036.40
2023-06-16T17:27:57.462Z,100030.85
2023-06-16T17:33:02.386Z,100023.91
2023-06-16T17:38:33.812Z,100021.25
2023-06-16T17:44:05.682Z,100020.45
2023-06-16T17:49:09.230Z,100018.33
2023-06-16T17:54:13.166Z,100017.54
2023-06-16T17:59:16.606Z,100021.89
2023-06-16T18:04:22.405Z,100023.71
2023-06-16T18:09:25.643Z,100029.92
2023-06-16T18:14:31.757Z,100034.48
2023-06-16T18:19:35.206Z,100035.50
2023-06-16T18:24:38.427Z,100038.24
2023-06-16T18:29:41.586Z,100038.27
2023-06-16T18:34:44.917Z,100035.08
2023-06-16T18:39:48.583Z,100036.59
2023-06-16T18:44:51.881Z,100037.84
2023-06-16T18:49:56.901Z,100037.80
2023-06-16T18:55:01.336Z,100036.98
2023-06-16T19:00:06.565Z,100040.82
2023-06-16T19:05:12.493Z,100047.64
2023-06-16T19:10:15.735Z,100049.83
2023-06-16T19:15:21.483Z,100050.33
2023-06-16T19:20:24.729Z,100058.53
2023-06-16T19:25:28.092Z,100064.45
2023-06-16T19:30:31.804Z,100064.17
2023-06-16T19:35:34.995Z,100063.23
2023-06-16T19:40:38.236Z,100064.61
2023-06-16T19:45:41.541Z,100061.68
2023-06-16T19:50:44.855Z,100055.94
2023-06-16T19:55:50.076Z,100049.35
2023-06-16T20:00:54.302Z,100051.89
2023-06-16T20:05:57.613Z,100049.52
2023-06-16T20:11:00.928Z,100045.98
2023-06-16T20:16:05.172Z,100042.17
2023-06-16T20:21:26.142Z,100043.27
2023-06-16T20:26:33.758Z,100045.93
2023-06-16T20:31:37.525Z,100050.45
2023-06-16T20:36:43.065Z,100049.26
2023-06-16T20:41:46.421Z,100048.98
2023-06-16T20:46:49.759Z,100050.96
2023-06-16T20:51:54.637Z,100049.80
2023-06-16T20:56:59.229Z,100048.27
2023-06-16T21:02:03.357Z,100043.64
2023-06-16T21:07:06.977Z,100042.25
2023-06-16T21:12:11.559Z,100045.44
2023-06-16T21:17:15.146Z,100051.83
2023-06-16T21:22:18.371Z,100052.59
2023-06-16T21:27:21.701Z,100055.65
2023-06-16T21:32:27.291Z,100052.92
2023-06-16T21:37:32.213Z,100055.64
2023-06-16T21:42:38.653Z,100052.81
2023-06-16T21:47:42.362Z,100049.08
2023-06-16T21:52:45.918Z,100050.41
2023-06-16T21:57:49.146Z,100049.48
2023-06-16T22:02:52.540Z,100050.67
2023-06-16T22:07:58.670Z,100047.25
2023-06-16T22:13:05.304Z,100042.28
2023-06-16T22:18:09.053Z,100043.11
2023-06-16T22:23:13.943Z,100037.41
2023-06-16T22:28:17.171Z,100038.43
2023-06-16T22:33:22.418Z,100031.77
2023-06-16T22:38:25.793Z,100033.56
2023-06-16T22:43:29.104Z,100027.92
2023-06-16T22:48:33.712Z,100027.83
2023-06-16T22:53:36.994Z,100029.84
2023-06-16T22:58:40.201Z,100026.49
2023-06-16T23:03:43.441Z,100024.30
2023-06-16T23:08:46.728Z,100024.36
2023-06-16T23:13:49.815Z,100018.36
2023-06-16T23:18:53.034Z,100016.95
2023-06-16T23:23:57.372Z,100009.09
2023-06-16T23:29:01.437Z,100007.80
2023-06-16T23:34:04.886Z,100001.62
2023-06-16T23:39:09.831Z,99999.55
2023-06-16T23:44:13.094Z,99993.86
2023-06-16T23:49:16.308Z,99989.39
2023-06-16T23:54:19.430Z,99982.12
2023-06-16T23:59:24.541Z,99982.73
